< < Back
Terminal Aerodrome Forecast


Current Version              Previous Versions:   1  2  3  4  5  6  7  8  9  

Terminal Aerodrome Forecast

589
FTUS42 KGSP 281131
TAFAVL
TAF
KAVL 281131Z 2812/2912 34005KT P6SM FEW040 SCT200
     FM281500 21008KT P6SM VCSH BKN050
     FM281800 23010G17KT P6SM VCTS BKN045CB
     FM282100 33014G20KT P6SM BKN050
     FM290100 34008KT P6SM FEW060 SCT250
     FM290800 35006KT P6SM FEW250=

Latest METAR

658
SAUS70 KWBC 291400 RRE
MTRAVL
METAR KAVL 291354Z 34011G19KT 10SM CLR 21/07 A3007 RMK AO2 SLP160
T02060072


USA.gov is the U.S. government's official web portal to all federal, state and local government web resources and services.